METAR & TAF Report
Available data for CYAM from the past 6 hours
SAULT STE MARIE, ON
Metar
CYAM 190500Z 19004KT 15SM -SHSN OVC018 M02/M04 A2973 RMK SC8 CVCTV CLD EMBD SLP078

05:00 UTC

Wind: 190° 4kt

Visibility: 15 SM

Sky: OVC 1800 ft

Temp: -2 deg C / 28.4 deg F

Dewpoint: -4 deg C / 24.8 deg F

Pressure: 29.73 inHg

TAF
TAF AMD CYAM 190339Z 1903/1914 23004KT 5SM -FZDZ -SN BR OVC015 TEMPO 1903/1908 P6SM NSW OVC025 PROB30 1903/1908 2SM -FZDZ BR OVC008 FM190800 VRB03KT P6SM OVC025 TEMPO 1908/1914 OVC015 PROB30 1908/1914 2SM -FZDZ BR OVC006 RMK NXT FCST BY 190800Z
NOTAM

Click here for NOTAMs.